createdAt,value
2023-01-13T00:00:15.906Z,4.10
2023-01-13T00:02:42.983Z,3.78
2023-01-13T00:05:10.750Z,4.47
2023-01-13T00:07:40.284Z,4.25
2023-01-13T00:10:11.487Z,3.55
2023-01-13T00:12:42.440Z,4.25
2023-01-13T00:15:10.887Z,3.80
2023-01-13T00:17:39.019Z,3.63
2023-01-13T00:20:07.059Z,3.72
2023-01-13T00:22:35.624Z,4.55
2023-01-13T00:25:04.553Z,3.33
2023-01-13T00:27:31.899Z,3.58
2023-01-13T00:29:58.983Z,3.30
2023-01-13T00:32:26.066Z,4.35
2023-01-13T00:34:53.134Z,3.83
2023-01-13T00:37:20.204Z,3.33
2023-01-13T00:39:47.289Z,3.47
2023-01-13T00:42:32.770Z,3.15
2023-01-13T00:44:59.764Z,3.33
2023-01-13T00:47:26.708Z,3.10
2023-01-13T00:49:53.619Z,4.22
2023-01-13T00:52:20.598Z,3.60
2023-01-13T00:54:47.537Z,4.05
2023-01-13T00:57:15.507Z,3.38
2023-01-13T00:59:42.530Z,3.97
2023-01-13T01:02:09.619Z,4.32
2023-01-13T01:04:36.754Z,3.50
2023-01-13T01:07:03.702Z,4.00
2023-01-13T01:09:33.662Z,4.10
2023-01-13T01:12:01.383Z,3.72
2023-01-13T01:14:28.644Z,3.90
2023-01-13T01:16:55.583Z,3.60
2023-01-13T01:19:22.722Z,3.92
2023-01-13T01:21:49.689Z,4.43
2023-01-13T01:24:16.860Z,4.50
2023-01-13T01:26:43.886Z,4.15
2023-01-13T01:29:14.051Z,4.63
2023-01-13T01:31:41.212Z,4.40
2023-01-13T01:34:08.151Z,4.50
2023-01-13T01:36:36.434Z,3.72
2023-01-13T01:39:04.761Z,4.20
2023-01-13T01:41:34.672Z,4.72
2023-01-13T01:44:25.679Z,4.43
2023-01-13T01:46:53.675Z,3.88
2023-01-13T01:49:31.558Z,3.90
2023-01-13T01:52:14.964Z,3.50
2023-01-13T01:54:54.737Z,3.85
2023-01-13T01:57:42.468Z,4.28
2023-01-13T02:00:10.187Z,4.03
2023-01-13T02:02:37.693Z,3.85
2023-01-13T02:05:04.915Z,4.13
2023-01-13T02:07:34.601Z,3.70
2023-01-13T02:10:08.509Z,4.60
2023-01-13T02:12:36.600Z,3.92
2023-01-13T02:15:11.590Z,3.70
2023-01-13T02:18:03.033Z,3.80
2023-01-13T02:20:57.013Z,3.83
2023-01-13T02:23:57.595Z,4.28
2023-01-13T02:26:42.447Z,3.70
2023-01-13T02:29:27.880Z,4.00
2023-01-13T02:32:09.578Z,3.90
2023-01-13T02:34:46.816Z,3.65
2023-01-13T02:37:30.191Z,3.85
2023-01-13T02:40:05.045Z,4.00
2023-01-13T02:42:59.540Z,4.05
2023-01-13T02:45:32.297Z,3.60
2023-01-13T02:48:01.808Z,3.75
2023-01-13T02:50:39.048Z,3.90
2023-01-13T02:53:13.222Z,3.88
2023-01-13T02:55:46.898Z,4.18
2023-01-13T02:58:18.275Z,4.00
2023-01-13T03:00:46.736Z,3.70
2023-01-13T03:03:14.215Z,3.95
2023-01-13T03:05:44.180Z,3.22
2023-01-13T03:08:29.917Z,3.80
2023-01-13T03:11:16.316Z,3.40
2023-01-13T03:14:06.201Z,3.03
2023-01-13T03:16:54.458Z,3.58
2023-01-13T03:19:21.801Z,3.30
2023-01-13T03:22:06.455Z,3.28
2023-01-13T03:24:44.028Z,3.05
2023-01-13T03:27:34.395Z,2.78
2023-01-13T03:30:23.923Z,2.47
2023-01-13T03:32:55.969Z,2.85
2023-01-13T03:35:31.241Z,2.97
2023-01-13T03:38:12.400Z,2.50
2023-01-13T03:40:53.873Z,2.42
2023-01-13T03:43:46.760Z,3.05
2023-01-13T03:46:26.910Z,2.75
2023-01-13T03:48:57.812Z,2.53
2023-01-13T03:51:29.053Z,2.85
2023-01-13T03:54:00.497Z,2.58
2023-01-13T03:56:34.103Z,2.65
2023-01-13T03:59:05.164Z,2.35
2023-01-13T04:02:01.720Z,2.53
2023-01-13T04:05:10.055Z,2.85
2023-01-13T04:07:54.814Z,2.75
2023-01-13T04:13:09.307Z,2.53
2023-01-13T04:15:43.171Z,2.47
2023-01-13T04:18:15.004Z,2.55
2023-01-13T04:20:44.024Z,2.65
2023-01-13T04:23:12.272Z,3.00
2023-01-13T04:25:39.896Z,2.97
2023-01-13T04:28:06.834Z,3.22
2023-01-13T04:30:34.210Z,2.55
2023-01-13T04:33:01.487Z,2.70
2023-01-13T04:35:28.462Z,2.85
2023-01-13T04:37:55.417Z,2.70
2023-01-13T04:40:22.639Z,2.58
2023-01-13T04:42:49.540Z,2.60
2023-01-13T04:45:16.513Z,2.72
2023-01-13T04:47:43.525Z,2.92
2023-01-13T04:50:11.834Z,2.85
2023-01-13T04:52:39.591Z,2.85
2023-01-13T04:55:07.804Z,3.33
2023-01-13T04:57:35.190Z,2.83
2023-01-13T05:00:02.224Z,3.33
2023-01-13T05:02:29.103Z,3.03
2023-01-13T05:04:56.123Z,2.60
2023-01-13T05:07:23.156Z,2.85
2023-01-13T05:09:50.078Z,3.33
2023-01-13T05:12:35.903Z,2.90
2023-01-13T05:15:21.556Z,2.83
2023-01-13T05:17:48.993Z,2.90
2023-01-13T05:20:16.057Z,3.10
2023-01-13T05:23:01.369Z,3.53
2023-01-13T05:25:28.584Z,3.20
2023-01-13T05:27:58.045Z,4.13
2023-01-13T05:30:31.262Z,3.33
2023-01-13T05:32:58.406Z,2.80
2023-01-13T05:35:25.831Z,3.65
2023-01-13T05:37:54.427Z,3.13
2023-01-13T05:40:40.594Z,2.85
2023-01-13T05:43:22.012Z,2.72
2023-01-13T05:46:21.698Z,2.28
2023-01-13T05:48:48.738Z,2.60
2023-01-13T05:51:15.698Z,3.10
2023-01-13T05:53:42.667Z,3.85
2023-01-13T05:56:10.381Z,4.38
2023-01-13T05:58:37.563Z,3.22
2023-01-13T06:01:07.269Z,3.05
2023-01-13T06:03:34.835Z,3.55
2023-01-13T06:06:04.043Z,3.20
2023-01-13T06:08:32.351Z,2.65
2023-01-13T06:10:59.363Z,3.17
2023-01-13T06:13:26.398Z,2.22
2023-01-13T06:15:58.144Z,2.50
2023-01-13T06:18:25.669Z,2.80
2023-01-13T06:20:52.614Z,2.40
2023-01-13T06:23:19.857Z,2.75
2023-01-13T06:26:05.646Z,2.30
2023-01-13T06:28:33.389Z,3.08
2023-01-13T06:31:05.534Z,1.92
2023-01-13T06:33:44.659Z,2.08
2023-01-13T06:36:18.513Z,2.42
2023-01-13T06:38:49.789Z,2.35
2023-01-13T06:41:17.224Z,1.98
2023-01-13T06:43:44.231Z,1.98
2023-01-13T06:46:11.358Z,2.17
2023-01-13T06:48:38.270Z,2.10
2023-01-13T06:51:06.034Z,2.00
2023-01-13T06:53:33.128Z,2.25
2023-01-13T06:56:00.222Z,2.92
2023-01-13T06:58:27.222Z,1.92
2023-01-13T07:00:54.288Z,1.60
2023-01-13T07:03:21.701Z,1.70
2023-01-13T07:05:53.909Z,1.65
2023-01-13T07:08:21.636Z,1.60
2023-01-13T07:14:55.400Z,1.75
2023-01-13T07:17:25.604Z,1.60
2023-01-13T07:23:39.836Z,1.83
2023-01-13T07:26:08.244Z,2.13
2023-01-13T07:28:35.918Z,2.17
2023-01-13T07:31:03.235Z,2.60
2023-01-13T07:33:33.488Z,2.10
2023-01-13T07:36:05.208Z,2.50
2023-01-13T07:38:33.485Z,2.55
2023-01-13T07:41:21.161Z,2.70
2023-01-13T07:43:48.377Z,2.70
2023-01-13T07:49:39.380Z,3.38
2023-01-13T07:52:06.277Z,2.95
2023-01-13T07:54:40.690Z,3.55
2023-01-13T07:57:08.332Z,3.33
2023-01-13T07:59:35.228Z,3.03
2023-01-13T08:02:02.468Z,2.83
2023-01-13T08:04:29.527Z,2.72
2023-01-13T08:06:56.395Z,2.80
2023-01-13T08:09:23.342Z,3.83
2023-01-13T08:12:10.229Z,3.03
2023-01-13T08:14:37.186Z,2.47
2023-01-13T08:17:04.118Z,2.80
2023-01-13T08:19:31.027Z,3.25
2023-01-13T08:21:58.007Z,2.80
2023-01-13T08:24:24.960Z,2.65
2023-01-13T08:26:51.986Z,3.42
2023-01-13T08:29:18.891Z,2.75
2023-01-13T08:31:45.892Z,3.00
2023-01-13T08:34:12.817Z,3.03
2023-01-13T08:36:39.837Z,3.17
2023-01-13T08:39:06.716Z,2.40
2023-01-13T08:41:52.077Z,2.70
2023-01-13T08:44:19.065Z,3.25
2023-01-13T08:46:46.067Z,3.30
2023-01-13T08:49:13.080Z,2.38
2023-01-13T08:51:40.026Z,2.60
2023-01-13T08:54:06.927Z,2.35
2023-01-13T08:56:35.559Z,2.47
2023-01-13T08:59:03.340Z,2.58
2023-01-13T09:01:30.537Z,2.63
2023-01-13T09:03:57.661Z,2.55
2023-01-13T09:06:24.829Z,2.47
2023-01-13T09:08:52.282Z,2.63
2023-01-13T09:11:42.892Z,2.85
2023-01-13T09:14:09.930Z,2.80
2023-01-13T09:16:36.833Z,2.65
2023-01-13T09:19:03.770Z,2.70
2023-01-13T09:21:30.716Z,2.75
2023-01-13T09:23:57.652Z,2.58
2023-01-13T09:26:24.559Z,2.80
2023-01-13T09:28:51.509Z,2.72
2023-01-13T09:31:18.580Z,2.67
2023-01-13T09:34:03.989Z,2.55
2023-01-13T09:36:30.915Z,2.42
2023-01-13T09:38:57.845Z,2.20
2023-01-13T09:41:46.457Z,2.30
2023-01-13T09:44:25.607Z,2.90
2023-01-13T09:47:00.178Z,2.90
2023-01-13T09:49:35.738Z,2.80
2023-01-13T09:52:15.328Z,2.90
2023-01-13T09:54:46.017Z,3.03
2023-01-13T09:57:18.196Z,2.38
2023-01-13T09:59:47.291Z,2.88
2023-01-13T10:02:52.521Z,2.60
2023-01-13T10:05:56.649Z,2.60
2023-01-13T10:08:32.849Z,2.95
2023-01-13T10:11:21.916Z,2.60
2023-01-13T10:13:55.973Z,2.55
2023-01-13T10:16:26.928Z,2.60
2023-01-13T10:19:19.080Z,2.22
2023-01-13T10:22:02.123Z,2.53
2023-01-13T10:24:47.109Z,2.10
2023-01-13T10:27:35.756Z,2.00
2023-01-13T10:30:19.786Z,2.03
2023-01-13T10:33:10.092Z,1.98
2023-01-13T10:36:01.250Z,1.73
2023-01-13T10:38:30.445Z,1.73
2023-01-13T10:41:06.003Z,1.70
2023-01-13T10:43:33.304Z,2.17
2023-01-13T10:46:11.002Z,2.00
2023-01-13T10:48:38.018Z,2.03
2023-01-13T10:51:25.263Z,1.80
2023-01-13T10:54:13.769Z,1.90
2023-01-13T10:56:42.818Z,1.73
2023-01-13T10:59:13.448Z,1.80
2023-01-13T11:01:43.601Z,1.77
2023-01-13T11:04:44.284Z,2.10
2023-01-13T11:07:41.552Z,1.73
2023-01-13T11:10:27.359Z,1.77
2023-01-13T11:13:16.644Z,1.73
2023-01-13T11:16:13.324Z,1.50
2023-01-13T11:19:02.647Z,1.65
2023-01-13T11:21:35.849Z,1.98
2023-01-13T11:24:37.500Z,1.70
2023-01-13T11:27:17.720Z,1.67
2023-01-13T11:30:12.508Z,1.83
2023-01-13T11:33:09.945Z,1.88
2023-01-13T11:35:55.645Z,1.80
2023-01-13T11:38:44.493Z,1.45
2023-01-13T11:41:32.880Z,1.67
2023-01-13T11:44:35.096Z,1.30
2023-01-13T11:47:02.295Z,2.10
2023-01-13T11:49:32.732Z,2.22
2023-01-13T11:52:18.381Z,1.63
2023-01-13T11:55:16.524Z,1.70
2023-01-13T11:58:00.368Z,1.35
2023-01-13T12:00:36.689Z,1.50
2023-01-13T12:03:06.643Z,1.48
2023-01-13T12:05:33.805Z,1.90
2023-01-13T12:08:15.973Z,1.40
2023-01-13T12:10:46.840Z,1.40
2023-01-13T12:13:29.810Z,1.42
2023-01-13T12:16:07.252Z,1.40
2023-01-13T12:18:51.516Z,1.45
2023-01-13T12:21:20.842Z,1.55
2023-01-13T12:23:55.231Z,1.75
2023-01-13T12:28:57.948Z,1.95
2023-01-13T12:31:26.771Z,1.70
2023-01-13T12:34:47.871Z,1.63
2023-01-13T12:37:27.585Z,1.77
2023-01-13T12:40:06.718Z,1.60
2023-01-13T12:43:16.143Z,1.85
2023-01-13T12:45:43.268Z,1.80
2023-01-13T12:48:49.381Z,1.92
2023-01-13T12:51:27.631Z,1.50
2023-01-13T12:53:56.493Z,2.22
2023-01-13T12:56:29.296Z,1.55
2023-01-13T12:59:15.028Z,1.98
2023-01-13T13:01:42.093Z,1.60
2023-01-13T13:04:15.089Z,1.60
2023-01-13T13:06:45.521Z,1.50
2023-01-13T13:09:33.076Z,1.60
2023-01-13T13:12:50.844Z,1.60
2023-01-13T13:15:23.801Z,1.90
2023-01-13T13:18:00.041Z,1.65
2023-01-13T13:21:09.481Z,3.25
2023-01-13T13:23:53.082Z,1.83
2023-01-13T13:26:32.989Z,3.08
2023-01-13T13:29:34.921Z,1.60
2023-01-13T13:32:26.017Z,2.00
2023-01-13T13:35:19.417Z,1.95
2023-01-13T13:38:38.819Z,1.70
2023-01-13T13:41:33.080Z,2.38
2023-01-13T13:44:39.252Z,2.60
2023-01-13T13:47:07.251Z,2.38
2023-01-13T13:49:41.606Z,2.33
2023-01-13T13:54:50.796Z,2.10
2023-01-13T13:57:34.358Z,2.92
2023-01-13T14:00:06.630Z,2.97
2023-01-13T14:02:37.767Z,3.65
2023-01-13T14:05:09.185Z,3.67
2023-01-13T14:07:47.254Z,3.90
2023-01-13T14:10:21.825Z,3.88
2023-01-13T14:12:48.930Z,4.20
2023-01-13T14:15:35.096Z,3.90
2023-01-13T14:18:04.212Z,3.70
2023-01-13T14:20:31.477Z,3.92
2023-01-13T14:23:01.682Z,3.33
2023-01-13T14:25:39.659Z,3.78
2023-01-13T14:28:29.258Z,3.58
2023-01-13T14:30:57.421Z,4.25
2023-01-13T14:34:02.968Z,3.28
2023-01-13T14:36:51.347Z,3.40
2023-01-13T14:39:18.232Z,3.70
2023-01-13T14:41:48.216Z,4.90
2023-01-13T14:44:27.620Z,4.53
2023-01-13T14:46:57.356Z,4.50
2023-01-13T14:49:41.599Z,4.43
2023-01-13T14:52:19.965Z,4.28
2023-01-13T14:55:08.727Z,4.03
2023-01-13T14:57:38.113Z,4.15
2023-01-13T15:00:15.895Z,3.22
2023-01-13T15:02:48.723Z,3.97
2023-01-13T15:05:25.598Z,4.18
2023-01-13T15:08:14.152Z,4.45
2023-01-13T15:10:50.043Z,3.67
2023-01-13T15:13:26.400Z,3.42
2023-01-13T15:15:59.657Z,4.07
2023-01-13T15:18:26.903Z,5.00
2023-01-13T15:20:53.900Z,4.82
2023-01-13T15:23:21.589Z,5.53
2023-01-13T15:25:49.124Z,4.60
2023-01-13T15:28:26.506Z,4.82
2023-01-13T15:30:55.125Z,4.18
2023-01-13T15:33:22.754Z,4.45
2023-01-13T15:35:52.118Z,4.70
2023-01-13T15:38:21.484Z,4.38
2023-01-13T15:40:49.792Z,4.25
2023-01-13T15:43:38.624Z,5.03
2023-01-13T15:46:33.775Z,4.20
2023-01-13T15:51:29.215Z,3.75
2023-01-13T15:53:56.231Z,3.83
2023-01-13T15:56:26.758Z,4.70
2023-01-13T15:58:54.070Z,3.72
2023-01-13T16:01:23.344Z,3.90
2023-01-13T16:03:52.249Z,4.43
2023-01-13T16:06:28.028Z,4.28
2023-01-13T16:08:54.975Z,4.00
2023-01-13T16:11:21.852Z,5.00
2023-01-13T16:13:48.836Z,3.75
2023-01-13T16:16:27.734Z,3.70
2023-01-13T16:18:55.225Z,3.42
2023-01-13T16:21:23.320Z,3.70
2023-01-13T16:23:51.429Z,4.45
2023-01-13T16:26:27.996Z,4.85
2023-01-13T16:28:57.290Z,4.80
2023-01-13T16:31:33.176Z,4.70
2023-01-13T16:34:01.864Z,4.30
2023-01-13T16:36:31.061Z,3.55
2023-01-13T16:38:58.141Z,3.58
2023-01-13T16:41:25.466Z,3.45
2023-01-13T16:43:52.999Z,4.20
2023-01-13T16:46:21.563Z,4.38
2023-01-13T16:48:49.596Z,4.15
2023-01-13T16:51:16.730Z,3.65
2023-01-13T16:53:43.709Z,3.72
2023-01-13T16:56:22.607Z,4.00
2023-01-13T16:58:50.651Z,3.15
2023-01-13T17:01:38.638Z,3.28
2023-01-13T17:04:06.420Z,3.72
2023-01-13T17:06:41.745Z,3.92
2023-01-13T17:09:16.636Z,4.38
2023-01-13T17:11:43.705Z,3.92
2023-01-13T17:14:19.072Z,5.22
2023-01-13T17:16:46.935Z,4.30
2023-01-13T17:19:14.226Z,5.57
2023-01-13T17:21:41.320Z,4.78
2023-01-13T17:24:10.768Z,5.15
2023-01-13T17:26:46.908Z,4.40
2023-01-13T17:29:17.044Z,4.10
2023-01-13T17:31:44.182Z,4.88
2023-01-13T17:34:12.472Z,5.10
2023-01-13T17:36:39.900Z,5.60
2023-01-13T17:39:06.901Z,4.82
2023-01-13T17:41:33.819Z,5.03
2023-01-13T17:44:00.781Z,5.28
2023-01-13T17:46:27.874Z,5.03
2023-01-13T17:48:55.123Z,5.03
2023-01-13T17:51:25.204Z,5.78
2023-01-13T17:53:53.445Z,6.10
2023-01-13T17:56:20.654Z,4.50
2023-01-13T17:58:47.611Z,4.70
2023-01-13T18:01:20.128Z,4.18
2023-01-13T18:03:47.451Z,4.70
2023-01-13T18:06:21.265Z,5.85
2023-01-13T18:08:48.963Z,3.33
2023-01-13T18:11:20.460Z,3.90
2023-01-13T18:13:55.181Z,3.50
2023-01-13T18:16:22.361Z,3.72
2023-01-13T18:18:52.229Z,3.00
2023-01-13T18:21:43.093Z,3.85
2023-01-13T18:24:33.989Z,3.72
2023-01-13T18:27:22.938Z,3.70
2023-01-13T18:29:58.151Z,4.13
2023-01-13T18:32:31.420Z,4.05
2023-01-13T18:35:07.283Z,4.40
2023-01-13T18:37:42.161Z,4.65
2023-01-13T18:40:11.896Z,4.30
2023-01-13T18:42:59.273Z,4.43
2023-01-13T18:45:32.063Z,4.40
2023-01-13T18:48:01.851Z,5.32
2023-01-13T18:50:30.153Z,6.00
2023-01-13T18:52:57.585Z,5.57
2023-01-13T18:55:25.237Z,5.85
2023-01-13T18:57:53.108Z,5.90
2023-01-13T19:00:21.985Z,5.72
2023-01-13T19:05:34.788Z,5.77
2023-01-13T19:08:02.111Z,4.68
2023-01-13T19:10:32.210Z,5.13
2023-01-13T19:12:59.153Z,6.05
2023-01-13T19:15:26.109Z,5.10
2023-01-13T19:17:53.042Z,5.40
2023-01-13T19:20:20.272Z,5.15
2023-01-13T19:22:54.084Z,5.80
2023-01-13T19:25:21.093Z,5.25
2023-01-13T19:27:48.048Z,4.95
2023-01-13T19:30:15.113Z,5.38
2023-01-13T19:32:42.243Z,5.65
2023-01-13T19:35:09.515Z,5.93
2023-01-13T19:37:37.121Z,5.13
2023-01-13T19:40:09.407Z,5.25
2023-01-13T19:42:55.319Z,5.20
2023-01-13T19:45:29.191Z,4.53
2023-01-13T19:47:57.191Z,4.28
2023-01-13T19:50:25.051Z,4.50
2023-01-13T19:52:52.077Z,4.63
2023-01-13T19:55:19.880Z,4.47
2023-01-13T19:57:47.113Z,4.82
2023-01-13T20:00:18.410Z,4.35
2023-01-13T20:02:49.327Z,4.97
2023-01-13T20:05:21.493Z,4.85
2023-01-13T20:07:49.733Z,5.40
2023-01-13T20:10:18.277Z,5.00
2023-01-13T20:12:45.234Z,5.40
2023-01-13T20:15:12.347Z,5.05
2023-01-13T20:17:40.631Z,5.18
2023-01-13T20:20:09.317Z,5.40
2023-01-13T20:22:37.958Z,5.70
2023-01-13T20:25:05.624Z,4.93
2023-01-13T20:27:32.632Z,5.55
2023-01-13T20:29:59.631Z,4.60
2023-01-13T20:32:26.620Z,5.03
2023-01-13T20:34:53.619Z,5.00
2023-01-13T20:37:20.582Z,4.88
2023-01-13T20:39:48.250Z,5.03
2023-01-13T20:42:30.418Z,4.60
2023-01-13T20:44:59.123Z,5.07
2023-01-13T20:47:28.688Z,5.57
2023-01-13T20:49:55.724Z,4.45
2023-01-13T20:52:23.018Z,5.13
2023-01-13T20:54:49.991Z,5.00
2023-01-13T20:57:17.003Z,5.53
2023-01-13T20:59:43.935Z,4.57
2023-01-13T21:02:13.873Z,4.65
2023-01-13T21:04:40.947Z,4.70
2023-01-13T21:07:08.504Z,5.20
2023-01-13T21:09:35.939Z,5.30
2023-01-13T21:12:21.815Z,4.40
2023-01-13T21:15:07.360Z,4.88
2023-01-13T21:17:52.911Z,5.13
2023-01-13T21:20:20.079Z,4.78
2023-01-13T21:22:48.859Z,4.40
2023-01-13T21:25:17.282Z,4.72
2023-01-13T21:27:44.225Z,4.80
2023-01-13T21:30:15.538Z,4.63
2023-01-13T21:32:44.233Z,4.35
2023-01-13T21:35:12.432Z,4.05
2023-01-13T21:37:41.051Z,3.95
2023-01-13T21:40:12.162Z,4.30
2023-01-13T21:42:57.809Z,4.28
2023-01-13T21:45:43.528Z,4.13
2023-01-13T21:48:10.495Z,4.53
2023-01-13T21:50:41.013Z,5.65
2023-01-13T21:53:08.369Z,4.57
2023-01-13T21:55:36.985Z,4.30
2023-01-13T21:58:12.411Z,3.63
2023-01-13T22:00:43.507Z,4.50
2023-01-13T22:03:12.518Z,4.03
2023-01-13T22:05:40.100Z,3.97
2023-01-13T22:08:08.022Z,3.80
2023-01-13T22:10:35.543Z,5.47
2023-01-13T22:13:24.014Z,3.83
2023-01-13T22:15:51.044Z,4.35
2023-01-13T22:18:20.891Z,4.03
2023-01-13T22:20:49.250Z,3.65
2023-01-13T22:23:16.115Z,4.68
2023-01-13T22:25:43.052Z,3.53
2023-01-13T22:28:13.870Z,4.20
2023-01-13T22:30:41.391Z,3.17
2023-01-13T22:33:08.361Z,3.33
2023-01-13T22:35:35.272Z,2.80
2023-01-13T22:38:02.196Z,2.60
2023-01-13T22:40:29.103Z,3.03
2023-01-13T22:42:56.007Z,3.00
2023-01-13T22:45:22.932Z,3.83
2023-01-13T22:47:50.035Z,3.17
2023-01-13T22:50:20.855Z,3.22
2023-01-13T22:52:47.927Z,3.20
2023-01-13T22:55:14.883Z,2.58
2023-01-13T22:57:47.671Z,3.25
2023-01-13T23:00:19.068Z,2.63
2023-01-13T23:02:46.429Z,3.10
2023-01-13T23:05:13.982Z,2.72
2023-01-13T23:07:41.286Z,2.58
2023-01-13T23:10:08.752Z,3.28
2023-01-13T23:12:35.673Z,2.38
2023-01-13T23:15:02.739Z,2.90
2023-01-13T23:17:29.691Z,2.72
2023-01-13T23:19:56.620Z,2.65
2023-01-13T23:22:23.530Z,2.53
2023-01-13T23:24:50.478Z,2.28
2023-01-13T23:27:17.437Z,3.28
2023-01-13T23:29:44.350Z,2.40
2023-01-13T23:32:11.244Z,3.17
2023-01-13T23:34:38.156Z,2.40
2023-01-13T23:37:05.147Z,3.30
2023-01-13T23:39:32.072Z,2.58
2023-01-13T23:41:59.650Z,2.25
2023-01-13T23:44:26.607Z,2.63
2023-01-13T23:46:53.517Z,2.80
2023-01-13T23:49:20.661Z,2.22
2023-01-13T23:51:50.914Z,2.83
2023-01-13T23:54:18.384Z,2.35
2023-01-13T23:56:45.493Z,3.42
2023-01-13T23:59:12.530Z,3.20
